createdAt,value
2024-02-04T00:02:21.508Z,85.59
2024-02-04T00:04:50.008Z,85.52
2024-02-04T00:07:17.551Z,84.63
2024-02-04T00:09:47.587Z,84.54
2024-02-04T00:12:15.290Z,84.26
2024-02-04T00:14:42.895Z,84.04
2024-02-04T00:17:10.184Z,84.06
2024-02-04T00:19:37.937Z,84.57
2024-02-04T00:22:05.385Z,84.75
2024-02-04T00:24:32.828Z,84.04
2024-02-04T00:27:00.585Z,84.51
2024-02-04T00:29:27.897Z,84.44
2024-02-04T00:31:55.216Z,85.85
2024-02-04T00:34:22.988Z,85.64
2024-02-04T00:36:50.330Z,85.66
2024-02-04T00:39:17.935Z,85.08
2024-02-04T00:41:45.569Z,84.97
2024-02-04T00:44:12.996Z,85.18
2024-02-04T00:46:40.307Z,84.94
2024-02-04T00:49:08.086Z,85.82
2024-02-04T00:51:35.692Z,84.44
2024-02-04T00:54:03.198Z,85.26
2024-02-04T00:56:31.354Z,84.78
2024-02-04T00:58:58.675Z,84.36
2024-02-04T01:01:26.866Z,83.81
2024-02-04T01:03:54.892Z,85.34
2024-02-04T01:06:22.310Z,84.44
2024-02-04T01:08:49.646Z,83.46
2024-02-04T01:11:17.368Z,84.65
2024-02-04T01:13:44.851Z,84.73
2024-02-04T01:16:12.245Z,84.77
2024-02-04T01:18:40.145Z,86.85
2024-02-04T01:21:07.569Z,85.73
2024-02-04T01:23:35.831Z,85.33
2024-02-04T01:26:03.574Z,85.18
2024-02-04T01:28:31.242Z,85.60
2024-02-04T01:30:58.594Z,85.04
2024-02-04T01:33:27.104Z,85.54
2024-02-04T01:35:54.548Z,85.77
2024-02-04T01:38:22.049Z,87.00
2024-02-04T01:40:52.603Z,86.25
2024-02-04T01:43:22.399Z,87.22
2024-02-04T01:45:53.720Z,88.04
2024-02-04T01:48:23.098Z,89.03
2024-02-04T01:50:54.403Z,87.17
2024-02-04T01:53:25.164Z,87.26
2024-02-04T01:55:53.765Z,87.35
2024-02-04T01:58:21.120Z,87.41
2024-02-04T02:00:51.063Z,87.32
2024-02-04T02:03:19.690Z,87.33
2024-02-04T02:05:47.681Z,87.28
2024-02-04T02:08:15.113Z,87.07
2024-02-04T02:10:47.930Z,87.19
2024-02-04T02:13:44.233Z,87.76
2024-02-04T02:16:23.058Z,87.21
2024-02-04T02:18:56.383Z,86.71
2024-02-04T02:21:52.278Z,87.25
2024-02-04T02:24:25.905Z,86.65
2024-02-04T02:26:54.481Z,87.31
2024-02-04T02:29:21.737Z,87.52
2024-02-04T02:31:49.679Z,89.79
2024-02-04T02:37:00.905Z,88.33
2024-02-04T02:39:47.015Z,88.74
2024-02-04T02:42:16.482Z,88.35
2024-02-04T02:44:45.740Z,89.28
2024-02-04T02:47:13.365Z,88.89
2024-02-04T02:49:40.858Z,88.67
2024-02-04T02:52:08.645Z,88.81
2024-02-04T02:54:35.978Z,88.99
2024-02-04T02:57:03.621Z,89.31
2024-02-04T02:59:32.153Z,89.24
2024-02-04T03:01:59.574Z,88.91
2024-02-04T03:04:27.113Z,88.92
2024-02-04T03:06:54.916Z,88.51
2024-02-04T03:09:22.396Z,88.06
2024-02-04T03:11:49.748Z,88.67
2024-02-04T03:14:18.324Z,89.20
2024-02-04T03:16:46.664Z,89.41
2024-02-04T03:19:14.209Z,89.14
2024-02-04T03:21:42.414Z,89.83
2024-02-04T03:24:10.044Z,89.21
2024-02-04T03:26:37.344Z,89.51
2024-02-04T03:29:06.242Z,89.65
2024-02-04T03:31:35.053Z,89.37
2024-02-04T03:34:02.916Z,89.34
2024-02-04T03:36:32.030Z,89.34
2024-02-04T03:38:59.449Z,89.18
2024-02-04T03:41:26.789Z,90.05
2024-02-04T03:43:56.433Z,91.18
2024-02-04T03:46:24.054Z,91.99
2024-02-04T03:48:51.628Z,90.25
2024-02-04T03:51:20.363Z,90.85
2024-02-04T03:53:49.296Z,90.67
2024-02-04T03:56:16.894Z,92.79
2024-02-04T03:58:45.289Z,93.36
2024-02-04T04:01:13.750Z,93.85
2024-02-04T04:03:43.210Z,93.16
2024-02-04T04:06:11.711Z,93.38
2024-02-04T04:08:39.649Z,95.30
2024-02-04T04:11:11.544Z,95.31
2024-02-04T04:13:39.977Z,95.06
2024-02-04T04:16:08.371Z,94.46
2024-02-04T04:18:35.998Z,92.95
2024-02-04T04:21:03.679Z,92.64
2024-02-04T04:23:31.768Z,93.34
2024-02-04T04:25:59.209Z,93.11
2024-02-04T04:28:26.703Z,92.39
2024-02-04T04:30:54.507Z,92.33
2024-02-04T04:33:22.181Z,92.73
2024-02-04T04:35:49.733Z,92.68
2024-02-04T04:38:17.616Z,92.29
2024-02-04T04:40:45.015Z,93.39
2024-02-04T04:43:12.478Z,94.76
2024-02-04T04:45:41.361Z,95.57
2024-02-04T04:48:11.753Z,96.01
2024-02-04T04:50:39.633Z,96.34
2024-02-04T04:53:07.786Z,97.78
2024-02-04T04:55:35.948Z,99.78
2024-02-04T04:58:04.696Z,99.80
2024-02-04T05:00:32.152Z,100.00
2024-02-04T05:02:59.732Z,100.00
2024-02-04T05:05:27.420Z,100.00
2024-02-04T05:07:55.050Z,100.00
2024-02-04T05:10:22.456Z,100.00
2024-02-04T05:12:51.436Z,100.00
2024-02-04T05:15:19.089Z,100.00
2024-02-04T05:17:46.755Z,100.00
2024-02-04T05:20:14.676Z,100.00
2024-02-04T05:22:41.934Z,100.00
2024-02-04T05:25:10.613Z,98.85
2024-02-04T05:27:42.333Z,97.76
2024-02-04T05:30:11.101Z,95.89
2024-02-04T05:32:40.226Z,93.36
2024-02-04T05:37:05.070Z,90.80
2024-02-04T05:39:33.046Z,90.80
2024-02-04T05:42:00.527Z,91.54
2024-02-04T05:44:28.911Z,92.50
2024-02-04T05:46:57.317Z,91.87
2024-02-04T05:49:25.682Z,91.20
2024-02-04T05:51:54.388Z,91.70
2024-02-04T05:54:22.811Z,90.85
2024-02-04T05:56:50.631Z,91.07
2024-02-04T05:59:18.810Z,88.98
2024-02-04T06:01:47.294Z,89.00
2024-02-04T06:04:16.764Z,88.63
2024-02-04T06:06:45.181Z,88.57
2024-02-04T06:09:12.659Z,86.90
2024-02-04T06:11:42.109Z,85.80
2024-02-04T06:14:10.636Z,86.05
2024-02-04T06:16:38.515Z,85.53
2024-02-04T06:19:10.993Z,85.62
2024-02-04T06:21:39.071Z,85.52
2024-02-04T06:24:06.994Z,85.35
2024-02-04T06:26:36.668Z,84.64
2024-02-04T06:29:05.158Z,85.02
2024-02-04T06:31:33.583Z,85.16
2024-02-04T06:34:02.728Z,84.83
2024-02-04T06:36:30.362Z,84.96
2024-02-04T06:38:59.551Z,83.91
2024-02-04T06:41:27.259Z,84.28
2024-02-04T06:43:55.040Z,84.14
2024-02-04T06:46:30.506Z,83.82
2024-02-04T06:49:01.007Z,83.42
2024-02-04T06:51:29.438Z,83.60
2024-02-04T06:53:58.774Z,84.13
2024-02-04T06:56:28.938Z,83.08
2024-02-04T06:58:56.977Z,82.50
2024-02-04T07:01:25.603Z,82.52
2024-02-04T07:04:01.869Z,81.81
2024-02-04T07:06:33.139Z,81.17
2024-02-04T07:09:04.423Z,79.64
2024-02-04T07:11:37.378Z,78.78
2024-02-04T07:14:05.826Z,78.87
2024-02-04T07:16:33.918Z,79.59
2024-02-04T07:19:04.275Z,79.09
2024-02-04T07:21:32.198Z,78.94
2024-02-04T07:24:00.575Z,79.19
2024-02-04T07:26:28.585Z,79.11
2024-02-04T07:28:56.882Z,78.54
2024-02-04T07:31:25.722Z,78.12
2024-02-04T07:33:53.533Z,76.99
2024-02-04T07:36:22.816Z,76.52
2024-02-04T07:38:52.199Z,77.50
2024-02-04T07:41:21.763Z,76.55
2024-02-04T07:43:53.191Z,77.16
2024-02-04T07:46:23.954Z,75.58
2024-02-04T07:48:52.434Z,76.05
2024-02-04T07:51:23.091Z,76.79
2024-02-04T07:53:51.550Z,75.91
2024-02-04T07:56:19.231Z,76.76
2024-02-04T07:58:47.985Z,76.52
2024-02-04T08:01:21.630Z,75.08
2024-02-04T08:03:50.318Z,75.54
2024-02-04T08:06:18.778Z,76.90
2024-02-04T08:08:51.992Z,76.41
2024-02-04T08:11:26.106Z,74.63
2024-02-04T08:13:56.287Z,75.03
2024-02-04T08:16:25.182Z,73.12
2024-02-04T08:18:54.249Z,71.90
2024-02-04T08:21:22.165Z,72.26
2024-02-04T08:23:50.612Z,71.89
2024-02-04T08:26:18.683Z,70.89
2024-02-04T08:28:46.366Z,70.99
2024-02-04T08:31:14.488Z,69.72
2024-02-04T08:33:46.045Z,69.48
2024-02-04T08:36:15.491Z,69.38
2024-02-04T08:38:45.084Z,69.56
2024-02-04T08:41:13.017Z,68.85
2024-02-04T08:43:42.242Z,67.75
2024-02-04T08:46:14.052Z,67.59
2024-02-04T08:48:46.727Z,67.21
2024-02-04T08:51:17.501Z,67.04
2024-02-04T08:53:47.911Z,66.75
2024-02-04T08:56:15.872Z,67.16
2024-02-04T08:58:47.447Z,66.73
2024-02-04T09:01:15.732Z,67.83
2024-02-04T09:03:48.180Z,67.42
2024-02-04T09:06:17.308Z,67.65
2024-02-04T09:08:45.372Z,66.85
2024-02-04T09:11:20.545Z,67.97
2024-02-04T09:13:50.048Z,67.74
2024-02-04T09:16:17.775Z,68.85
2024-02-04T09:18:49.003Z,68.40
2024-02-04T09:21:18.120Z,68.41
2024-02-04T09:23:47.141Z,69.28
2024-02-04T09:26:17.961Z,69.54
2024-02-04T09:28:48.643Z,70.20
2024-02-04T09:31:16.645Z,70.03
2024-02-04T09:33:45.432Z,71.57
2024-02-04T09:36:15.056Z,70.78
2024-02-04T09:38:45.054Z,71.44
2024-02-04T09:41:14.736Z,71.50
2024-02-04T09:43:43.372Z,72.18
2024-02-04T09:46:12.138Z,72.32
2024-02-04T09:48:42.234Z,72.86
2024-02-04T09:51:10.562Z,72.66
2024-02-04T09:53:44.761Z,73.03
2024-02-04T09:56:15.872Z,71.58
2024-02-04T09:58:45.230Z,72.35
2024-02-04T10:01:17.668Z,72.03
2024-02-04T10:03:51.281Z,72.25
2024-02-04T10:06:19.121Z,71.09
2024-02-04T10:08:49.549Z,72.27
2024-02-04T10:11:17.400Z,71.23
2024-02-04T10:13:49.897Z,71.10
2024-02-04T10:16:19.321Z,70.52
2024-02-04T10:18:47.537Z,70.58
2024-02-04T10:21:22.944Z,71.03
2024-02-04T10:23:52.165Z,71.40
2024-02-04T10:26:21.688Z,70.81
2024-02-04T10:28:50.813Z,70.71
2024-02-04T10:31:18.715Z,70.72
2024-02-04T10:33:46.657Z,70.04
2024-02-04T10:36:14.350Z,69.59
2024-02-04T10:38:42.328Z,69.54
2024-02-04T10:41:16.182Z,70.64
2024-02-04T10:43:45.367Z,69.00
2024-02-04T10:46:23.952Z,68.93
2024-02-04T10:49:00.862Z,67.97
2024-02-04T10:51:29.175Z,66.90
2024-02-04T10:53:57.974Z,67.00
2024-02-04T10:56:45.948Z,67.81
2024-02-04T10:59:20.817Z,68.87
2024-02-04T11:01:51.623Z,70.08
2024-02-04T11:04:20.949Z,70.08
2024-02-04T11:06:49.421Z,71.03
2024-02-04T11:09:18.923Z,71.73
2024-02-04T11:11:47.645Z,70.88
2024-02-04T11:14:20.344Z,70.62
2024-02-04T11:17:04.940Z,70.57
2024-02-04T11:19:55.368Z,69.65
2024-02-04T11:22:41.774Z,70.24
2024-02-04T11:25:16.672Z,69.64
2024-02-04T11:27:45.678Z,69.23
2024-02-04T11:30:13.547Z,69.37
2024-02-04T11:32:41.243Z,68.64
2024-02-04T11:35:10.074Z,68.96
2024-02-04T11:37:37.770Z,67.93
2024-02-04T11:40:08.700Z,67.74
2024-02-04T11:42:36.974Z,67.48
2024-02-04T11:45:09.209Z,67.54
2024-02-04T11:47:39.440Z,67.63
2024-02-04T11:50:08.785Z,68.24
2024-02-04T11:52:37.947Z,68.17
2024-02-04T11:55:08.812Z,68.72
2024-02-04T11:57:37.102Z,68.39
2024-02-04T12:00:07.335Z,68.16
2024-02-04T12:02:35.363Z,67.29
2024-02-04T12:05:04.561Z,64.84
2024-02-04T12:07:32.436Z,64.47
2024-02-04T12:10:00.529Z,61.98
2024-02-04T12:12:28.891Z,60.81
2024-02-04T12:14:56.569Z,60.37
2024-02-04T12:17:27.131Z,60.53
2024-02-04T12:19:55.357Z,60.04
2024-02-04T12:22:23.652Z,60.03
2024-02-04T12:24:51.583Z,59.65
2024-02-04T12:27:19.079Z,58.93
2024-02-04T12:29:46.639Z,59.41
2024-02-04T12:32:15.151Z,58.84
2024-02-04T12:34:43.596Z,58.95
2024-02-04T12:37:11.884Z,59.75
2024-02-04T12:39:40.658Z,60.40
2024-02-04T12:42:08.285Z,60.97
2024-02-04T12:44:35.745Z,60.49
2024-02-04T12:47:03.576Z,59.68
2024-02-04T12:49:32.099Z,60.36
2024-02-04T12:52:07.555Z,59.04
2024-02-04T12:54:45.430Z,58.27
2024-02-04T12:57:27.256Z,57.71
2024-02-04T13:00:07.880Z,56.19
2024-02-04T13:02:35.939Z,55.11
2024-02-04T13:05:04.116Z,54.49
2024-02-04T13:07:31.755Z,53.91
2024-02-04T13:10:01.503Z,53.48
2024-02-04T13:12:29.500Z,52.79
2024-02-04T13:14:57.205Z,53.88
2024-02-04T13:17:24.641Z,53.33
2024-02-04T13:19:52.774Z,53.12
2024-02-04T13:22:20.505Z,52.11
2024-02-04T13:24:48.016Z,52.22
2024-02-04T13:27:16.483Z,51.18
2024-02-04T13:29:44.831Z,51.53
2024-02-04T13:32:14.004Z,52.57
2024-02-04T13:34:42.096Z,53.01
2024-02-04T13:37:10.649Z,53.45
2024-02-04T13:39:38.191Z,56.17
2024-02-04T13:42:07.152Z,56.85
2024-02-04T13:44:34.958Z,58.31
2024-02-04T13:47:06.257Z,58.12
2024-02-04T13:49:35.103Z,58.65
2024-02-04T13:52:02.661Z,57.95
2024-02-04T13:54:30.301Z,56.37
2024-02-04T13:56:58.407Z,54.64
2024-02-04T13:59:26.686Z,55.47
2024-02-04T14:01:58.356Z,55.64
2024-02-04T14:04:28.380Z,55.38
2024-02-04T14:06:55.956Z,56.57
2024-02-04T14:09:23.476Z,58.03
2024-02-04T14:11:51.223Z,58.50
2024-02-04T14:14:19.674Z,55.83
2024-02-04T14:16:48.542Z,54.38
2024-02-04T14:19:16.390Z,53.08
2024-02-04T14:21:44.122Z,53.38
2024-02-04T14:24:11.672Z,51.97
2024-02-04T14:26:39.594Z,53.42
2024-02-04T14:29:07.089Z,55.22
2024-02-04T14:31:35.001Z,56.01
2024-02-04T14:34:03.464Z,56.75
2024-02-04T14:36:31.719Z,57.43
2024-02-04T14:38:59.145Z,57.99
2024-02-04T14:41:28.567Z,59.42
2024-02-04T14:43:56.275Z,60.40
2024-02-04T14:46:24.059Z,60.72
2024-02-04T14:51:21.381Z,61.62
2024-02-04T14:53:49.074Z,62.05
2024-02-04T14:56:17.439Z,62.76
2024-02-04T14:58:45.408Z,63.25
2024-02-04T15:01:13.773Z,63.12
2024-02-04T15:03:42.395Z,64.75
2024-02-04T15:06:09.883Z,64.80
2024-02-04T15:08:37.302Z,65.39
2024-02-04T15:11:05.450Z,65.72
2024-02-04T15:13:34.413Z,65.34
2024-02-04T15:16:03.073Z,65.61
2024-02-04T15:18:32.792Z,66.10
2024-02-04T15:21:00.880Z,66.86
2024-02-04T15:23:28.744Z,66.86
2024-02-04T15:25:57.237Z,67.66
2024-02-04T15:28:26.178Z,68.15
2024-02-04T15:30:54.157Z,67.87
2024-02-04T15:33:22.556Z,68.20
2024-02-04T15:35:50.105Z,68.79
2024-02-04T15:38:18.872Z,68.17
2024-02-04T15:40:47.356Z,68.16
2024-02-04T15:43:15.771Z,67.61
2024-02-04T15:45:43.775Z,68.51
2024-02-04T15:48:15.920Z,69.65
2024-02-04T15:50:43.923Z,69.71
2024-02-04T15:53:13.284Z,68.89
2024-02-04T15:55:41.453Z,68.92
2024-02-04T15:58:09.674Z,69.77
2024-02-04T16:00:37.780Z,69.67
2024-02-04T16:03:05.963Z,70.09
2024-02-04T16:05:37.665Z,69.81
2024-02-04T16:08:05.987Z,70.17
2024-02-04T16:10:33.938Z,69.56
2024-02-04T16:13:04.102Z,70.08
2024-02-04T16:15:32.392Z,71.07
2024-02-04T16:18:01.227Z,70.99
2024-02-04T16:20:30.889Z,71.04
2024-02-04T16:22:59.646Z,70.60
2024-02-04T16:25:31.411Z,70.68
2024-02-04T16:28:00.901Z,71.00
2024-02-04T16:30:28.502Z,70.99
2024-02-04T16:32:56.264Z,70.94
2024-02-04T16:35:24.439Z,70.86
2024-02-04T16:37:52.179Z,71.72
2024-02-04T16:40:19.855Z,70.41
2024-02-04T16:42:47.655Z,70.99
2024-02-04T16:45:15.101Z,70.53
2024-02-04T16:47:43.347Z,70.65
2024-02-04T16:50:11.529Z,71.78
2024-02-04T16:52:39.552Z,73.49
2024-02-04T16:55:07.624Z,71.75
2024-02-04T16:57:37.216Z,72.30
2024-02-04T17:00:09.647Z,73.08
2024-02-04T17:02:37.478Z,72.23
2024-02-04T17:05:05.734Z,72.83
2024-02-04T17:07:33.546Z,73.93
2024-02-04T17:10:02.356Z,73.93
2024-02-04T17:12:30.691Z,73.61
2024-02-04T17:14:58.947Z,73.75
2024-02-04T17:17:27.499Z,73.50
2024-02-04T17:20:13.200Z,74.93
2024-02-04T17:22:45.877Z,74.10
2024-02-04T17:25:19.358Z,74.40
2024-02-04T17:27:48.686Z,75.06
2024-02-04T17:30:17.376Z,75.06
2024-02-04T17:32:49.293Z,74.62
2024-02-04T17:35:20.668Z,75.82
2024-02-04T17:37:49.698Z,76.64
2024-02-04T17:40:18.728Z,77.91
2024-02-04T17:42:46.697Z,78.64
2024-02-04T17:45:14.746Z,80.98
2024-02-04T17:47:44.601Z,80.49
2024-02-04T17:50:13.271Z,81.48
2024-02-04T17:52:42.783Z,80.48
2024-02-04T17:55:11.699Z,80.72
2024-02-04T17:57:39.540Z,80.25
2024-02-04T18:00:11.721Z,80.85
2024-02-04T18:02:46.688Z,80.86
2024-02-04T18:05:19.364Z,81.32
2024-02-04T18:07:50.359Z,82.09
2024-02-04T18:10:18.197Z,80.21
2024-02-04T18:12:45.996Z,81.48
2024-02-04T18:15:14.650Z,82.55
2024-02-04T18:17:44.469Z,82.71
2024-02-04T18:20:13.566Z,82.16
2024-02-04T18:22:41.850Z,84.41
2024-02-04T18:25:12.882Z,84.73
2024-02-04T18:27:43.445Z,86.19
2024-02-04T18:30:12.676Z,86.01
2024-02-04T18:32:41.500Z,87.07
2024-02-04T18:35:10.231Z,83.77
2024-02-04T18:37:38.198Z,84.50
2024-02-04T18:40:08.632Z,83.60
2024-02-04T18:42:37.889Z,81.78
2024-02-04T18:45:08.635Z,80.01
2024-02-04T18:47:36.827Z,78.27
2024-02-04T18:50:04.740Z,77.29
2024-02-04T18:52:35.061Z,76.36
2024-02-04T18:55:04.949Z,76.16
2024-02-04T18:57:35.072Z,74.86
2024-02-04T19:00:03.876Z,75.17
2024-02-04T19:02:32.720Z,75.96
2024-02-04T19:05:02.686Z,75.12
2024-02-04T19:07:31.639Z,75.20
2024-02-04T19:09:59.873Z,75.06
2024-02-04T19:12:28.228Z,75.70
2024-02-04T19:14:55.671Z,75.89
2024-02-04T19:17:23.333Z,75.69
2024-02-04T19:19:51.137Z,76.53
2024-02-04T19:22:18.676Z,76.50
2024-02-04T19:24:46.277Z,76.25
2024-02-04T19:27:14.615Z,75.49
2024-02-04T19:29:42.144Z,75.72
2024-02-04T19:32:09.544Z,75.41
2024-02-04T19:34:38.993Z,74.69
2024-02-04T19:37:06.658Z,71.84
2024-02-04T19:39:34.288Z,73.50
2024-02-04T19:42:02.436Z,72.25
2024-02-04T19:44:29.863Z,72.52
2024-02-04T19:46:57.273Z,70.91
2024-02-04T19:49:28.396Z,71.47
2024-02-04T19:51:57.715Z,71.81
2024-02-04T19:54:25.744Z,71.25
2024-02-04T19:56:53.414Z,70.12
2024-02-04T19:59:20.875Z,69.64
2024-02-04T20:01:50.471Z,68.77
2024-02-04T20:04:19.702Z,68.62
2024-02-04T20:06:48.357Z,67.77
2024-02-04T20:09:17.351Z,67.33
2024-02-04T20:11:45.288Z,67.58
2024-02-04T20:14:12.777Z,66.58
2024-02-04T20:16:40.825Z,66.83
2024-02-04T20:19:08.929Z,66.09
2024-02-04T20:21:36.664Z,66.32
2024-02-04T20:24:04.665Z,66.14
2024-02-04T20:26:33.165Z,66.80
2024-02-04T20:29:00.618Z,66.72
2024-02-04T20:31:28.043Z,65.15
2024-02-04T20:33:55.898Z,65.85
2024-02-04T20:36:23.475Z,65.20
2024-02-04T20:38:51.039Z,65.13
2024-02-04T20:41:19.888Z,65.82
2024-02-04T20:43:47.395Z,65.81
2024-02-04T20:46:14.932Z,64.89
2024-02-04T20:48:42.805Z,65.78
2024-02-04T20:51:11.406Z,65.12
2024-02-04T20:53:39.333Z,64.90
2024-02-04T20:56:07.157Z,64.34
2024-02-04T20:58:39.829Z,65.35
2024-02-04T21:01:08.282Z,65.13
2024-02-04T21:03:36.370Z,64.47
2024-02-04T21:06:04.023Z,65.42
2024-02-04T21:08:31.854Z,64.45
2024-02-04T21:10:59.620Z,65.39
2024-02-04T21:13:27.314Z,64.93
2024-02-04T21:15:55.197Z,63.82
2024-02-04T21:18:22.960Z,64.08
2024-02-04T21:20:50.456Z,64.90
2024-02-04T21:23:19.577Z,65.17
2024-02-04T21:25:47.025Z,65.69
2024-02-04T21:28:14.933Z,65.65
2024-02-04T21:30:42.752Z,66.28
2024-02-04T21:33:10.261Z,66.84
2024-02-04T21:35:38.047Z,66.86
2024-02-04T21:38:05.821Z,66.74
2024-02-04T21:40:33.304Z,67.05
2024-02-04T21:43:01.552Z,67.43
2024-02-04T21:45:29.366Z,66.76
2024-02-04T21:47:56.930Z,66.13
2024-02-04T21:50:24.529Z,68.20
2024-02-04T21:52:52.422Z,68.83
2024-02-04T21:55:20.075Z,70.17
2024-02-04T21:57:47.540Z,71.93
2024-02-04T22:00:15.658Z,71.16
2024-02-04T22:02:43.473Z,70.76
2024-02-04T22:05:10.901Z,70.91
2024-02-04T22:07:38.451Z,72.62
2024-02-04T22:10:09.969Z,72.86
2024-02-04T22:12:38.028Z,74.07
2024-02-04T22:15:09.252Z,74.15
2024-02-04T22:17:40.138Z,74.48
2024-02-04T22:20:10.297Z,74.01
2024-02-04T22:22:37.888Z,73.65
2024-02-04T22:25:05.570Z,75.13
2024-02-04T22:27:34.310Z,76.84
2024-02-04T22:30:03.984Z,76.67
2024-02-04T22:32:32.244Z,75.87
2024-02-04T22:35:00.191Z,75.91
2024-02-04T22:37:27.762Z,76.29
2024-02-04T22:39:55.104Z,76.67
2024-02-04T22:42:22.914Z,78.73
2024-02-04T22:44:50.206Z,78.05
2024-02-04T22:47:19.295Z,77.29
2024-02-04T22:49:46.951Z,77.33
2024-02-04T22:52:15.603Z,77.81
2024-02-04T22:54:43.586Z,80.22
2024-02-04T22:57:11.314Z,76.64
2024-02-04T22:59:38.617Z,78.24
2024-02-04T23:02:07.953Z,78.37
2024-02-04T23:04:38.786Z,78.57
2024-02-04T23:07:07.868Z,79.91
2024-02-04T23:09:35.743Z,79.09
2024-02-04T23:12:03.189Z,79.11
2024-02-04T23:14:30.779Z,79.02
2024-02-04T23:16:58.923Z,79.72
2024-02-04T23:19:26.576Z,81.81
2024-02-04T23:21:54.216Z,81.65
2024-02-04T23:24:21.932Z,80.87
2024-02-04T23:26:49.918Z,80.29
2024-02-04T23:29:17.178Z,80.21
2024-02-04T23:31:44.818Z,80.24
2024-02-04T23:34:12.209Z,79.98
2024-02-04T23:36:39.688Z,80.06
2024-02-04T23:39:08.113Z,80.47
2024-02-04T23:41:35.396Z,81.36
2024-02-04T23:44:02.766Z,80.88
2024-02-04T23:46:30.373Z,81.57
2024-02-04T23:48:57.697Z,81.94
2024-02-04T23:51:25.209Z,82.39
2024-02-04T23:53:53.276Z,82.34
2024-02-04T23:56:20.605Z,81.62
2024-02-04T23:58:48.041Z,81.60
